sensor_id;sensor_type;location;lat;lon;timestamp;temperature;humidity
15815;DHT22;8008;50.024;8.172;2023-06-24T03:01:25;19.00;97.70
15815;DHT22;8008;50.024;8.172;2023-06-24T03:03:56;19.00;98.20
15815;DHT22;8008;50.024;8.172;2023-06-24T03:06:25;19.00;98.30
15815;DHT22;8008;50.024;8.172;2023-06-24T03:08:58;19.10;98.40
15815;DHT22;8008;50.024;8.172;2023-06-24T03:11:28;19.20;98.20
15815;DHT22;8008;50.024;8.172;2023-06-24T03:13:59;19.30;98.20
15815;DHT22;8008;50.024;8.172;2023-06-24T03:16:36;19.30;98.20
15815;DHT22;8008;50.024;8.172;2023-06-24T03:19:16;19.30;98.10
15815;DHT22;8008;50.024;8.172;2023-06-24T03:21:44;19.30;98.10
15815;DHT22;8008;50.024;8.172;2023-06-24T03:24:15;19.30;97.90
15815;DHT22;8008;50.024;8.172;2023-06-24T03:26:47;19.30;98.00
15815;DHT22;8008;50.024;8.172;2023-06-24T03:29:16;19.30;98.00
15815;DHT22;8008;50.024;8.172;2023-06-24T03:31:56;19.20;98.20
15815;DHT22;8008;50.024;8.172;2023-06-24T03:34:27;19.20;98.40
15815;DHT22;8008;50.024;8.172;2023-06-24T03:36:55;19.10;98.50
15815;DHT22;8008;50.024;8.172;2023-06-24T03:39:25;19.00;99.00
15815;DHT22;8008;50.024;8.172;2023-06-24T03:41:53;18.90;99.20
15815;DHT22;8008;50.024;8.172;2023-06-24T03:44:21;18.90;99.40
15815;DHT22;8008;50.024;8.172;2023-06-24T03:46:49;18.90;99.50
15815;DHT22;8008;50.024;8.172;2023-06-24T03:49:18;18.90;99.60
15815;DHT22;8008;50.024;8.172;2023-06-24T03:51:48;19.00;99.70
15815;DHT22;8008;50.024;8.172;2023-06-24T03:54:16;18.90;99.40
15815;DHT22;8008;50.024;8.172;2023-06-24T03:56:44;18.80;99.70
15815;DHT22;8008;50.024;8.172;2023-06-24T03:59:12;18.60;99.90
15815;DHT22;8008;50.024;8.172;2023-06-24T04:01:40;18.50;99.90
15815;DHT22;8008;50.024;8.172;2023-06-24T04:04:08;18.40;99.90
15815;DHT22;8008;50.024;8.172;2023-06-24T04:06:38;18.30;99.90
15815;DHT22;8008;50.024;8.172;2023-06-24T04:09:06;18.30;99.90
15815;DHT22;8008;50.024;8.172;2023-06-24T04:11:36;18.30;99.90
15815;DHT22;8008;50.024;8.172;2023-06-24T04:14:04;18.30;99.90
15815;DHT22;8008;50.024;8.172;2023-06-24T04:16:33;18.30;99.90
15815;DHT22;8008;50.024;8.172;2023-06-24T04:19:01;18.30;99.90
15815;DHT22;8008;50.024;8.172;2023-06-24T04:21:30;18.30;99.90
15815;DHT22;8008;50.024;8.172;2023-06-24T04:23:59;18.40;99.90
15815;DHT22;8008;50.024;8.172;2023-06-24T04:26:27;18.30;99.90
15815;DHT22;8008;50.024;8.172;2023-06-24T04:28:56;18.30;99.90
15815;DHT22;8008;50.024;8.172;2023-06-24T04:31:24;18.30;99.90
15815;DHT22;8008;50.024;8.172;2023-06-24T04:33:55;18.10;99.90
15815;DHT22;8008;50.024;8.172;2023-06-24T04:36:23;18.00;99.90
15815;DHT22;8008;50.024;8.172;2023-06-24T04:38:52;18.00;99.90
15815;DHT22;8008;50.024;8.172;2023-06-24T04:41:21;18.10;99.90
15815;DHT22;8008;50.024;8.172;2023-06-24T04:43:49;18.20;99.90
15815;DHT22;8008;50.024;8.172;2023-06-24T04:46:17;18.30;99.90
15815;DHT22;8008;50.024;8.172;2023-06-24T04:48:46;18.30;99.90
15815;DHT22;8008;50.024;8.172;2023-06-24T04:51:14;18.20;99.90
15815;DHT22;8008;50.024;8.172;2023-06-24T04:53:42;18.00;99.90
15815;DHT22;8008;50.024;8.172;2023-06-24T04:56:10;17.90;99.90
15815;DHT22;8008;50.024;8.172;2023-06-24T04:58:39;17.80;99.90
15815;DHT22;8008;50.024;8.172;2023-06-24T05:01:07;17.90;99.90
15815;DHT22;8008;50.024;8.172;2023-06-24T05:03:35;18.00;99.90
15815;DHT22;8008;50.024;8.172;2023-06-24T05:06:03;18.10;99.90
15815;DHT22;8008;50.024;8.172;2023-06-24T05:08:32;18.20;99.90
15815;DHT22;8008;50.024;8.172;2023-06-24T05:11:00;18.40;99.90
15815;DHT22;8008;50.024;8.172;2023-06-24T05:13:28;18.40;99.90
15815;DHT22;8008;50.024;8.172;2023-06-24T05:15:57;18.50;99.90
15815;DHT22;8008;50.024;8.172;2023-06-24T05:18:25;18.50;99.90
15815;DHT22;8008;50.024;8.172;2023-06-24T05:20:53;18.40;99.90
15815;DHT22;8008;50.024;8.172;2023-06-24T05:23:21;18.40;99.90
15815;DHT22;8008;50.024;8.172;2023-06-24T05:25:49;18.40;99.90
15815;DHT22;8008;50.024;8.172;2023-06-24T05:28:17;18.40;99.90
15815;DHT22;8008;50.024;8.172;2023-06-24T05:30:45;18.40;99.90
15815;DHT22;8008;50.024;8.172;2023-06-24T05:33:15;18.30;99.90
15815;DHT22;8008;50.024;8.172;2023-06-24T05:35:43;18.50;99.90
15815;DHT22;8008;50.024;8.172;2023-06-24T05:38:11;18.60;99.90
15815;DHT22;8008;50.024;8.172;2023-06-24T05:40:39;18.60;99.90
15815;DHT22;8008;50.024;8.172;2023-06-24T05:43:07;18.70;99.90
15815;DHT22;8008;50.024;8.172;2023-06-24T05:45:35;18.90;99.90
15815;DHT22;8008;50.024;8.172;2023-06-24T05:48:04;19.00;99.90
15815;DHT22;8008;50.024;8.172;2023-06-24T05:50:33;19.00;99.90
15815;DHT22;8008;50.024;8.172;2023-06-24T05:53:01;19.00;99.90
15815;DHT22;8008;50.024;8.172;2023-06-24T05:55:29;19.10;99.90
15815;DHT22;8008;50.024;8.172;2023-06-24T05:57:58;19.10;99.90
15815;DHT22;8008;50.024;8.172;2023-06-24T06:00:26;19.20;99.90
15815;DHT22;8008;50.024;8.172;2023-06-24T06:02:54;19.30;99.90
15815;DHT22;8008;50.024;8.172;2023-06-24T06:05:22;19.30;99.90
15815;DHT22;8008;50.024;8.172;2023-06-24T06:07:51;19.50;99.90
15815;DHT22;8008;50.024;8.172;2023-06-24T06:10:20;19.60;99.90
15815;DHT22;8008;50.024;8.172;2023-06-24T06:12:48;19.70;99.90
15815;DHT22;8008;50.024;8.172;2023-06-24T06:15:17;19.80;99.90
15815;DHT22;8008;50.024;8.172;2023-06-24T06:17:45;19.70;99.90
15815;DHT22;8008;50.024;8.172;2023-06-24T06:20:14;19.60;99.90
15815;DHT22;8008;50.024;8.172;2023-06-24T06:22:42;19.60;99.90
15815;DHT22;8008;50.024;8.172;2023-06-24T06:25:11;19.70;99.90
15815;DHT22;8008;50.024;8.172;2023-06-24T06:27:40;19.90;99.90
15815;DHT22;8008;50.024;8.172;2023-06-24T06:30:08;20.00;99.90
15815;DHT22;8008;50.024;8.172;2023-06-24T06:32:37;20.20;99.90
15815;DHT22;8008;50.024;8.172;2023-06-24T06:35:06;20.30;99.90
15815;DHT22;8008;50.024;8.172;2023-06-24T06:37:34;20.40;99.90
15815;DHT22;8008;50.024;8.172;2023-06-24T06:40:03;20.40;99.90
15815;DHT22;8008;50.024;8.172;2023-06-24T06:42:33;20.50;99.90
15815;DHT22;8008;50.024;8.172;2023-06-24T06:45:01;20.40;99.90
15815;DHT22;8008;50.024;8.172;2023-06-24T06:47:29;20.50;99.90
15815;DHT22;8008;50.024;8.172;2023-06-24T06:49:57;20.50;99.90
15815;DHT22;8008;50.024;8.172;2023-06-24T06:52:25;20.70;99.90
15815;DHT22;8008;50.024;8.172;2023-06-24T06:54:54;20.80;99.90
15815;DHT22;8008;50.024;8.172;2023-06-24T06:57:22;20.90;99.90
15815;DHT22;8008;50.024;8.172;2023-06-24T06:59:55;21.00;99.90
15815;DHT22;8008;50.024;8.172;2023-06-24T07:02:24;21.00;99.90
15815;DHT22;8008;50.024;8.172;2023-06-24T07:04:52;21.00;99.90
15815;DHT22;8008;50.024;8.172;2023-06-24T07:07:20;21.10;99.90
15815;DHT22;8008;50.024;8.172;2023-06-24T07:09:48;21.20;99.90
15815;DHT22;8008;50.024;8.172;2023-06-24T07:12:16;21.40;99.90
15815;DHT22;8008;50.024;8.172;2023-06-24T07:14:44;21.50;99.90
15815;DHT22;8008;50.024;8.172;2023-06-24T07:17:13;21.60;99.90
15815;DHT22;8008;50.024;8.172;2023-06-24T07:19:41;21.70;99.90
15815;DHT22;8008;50.024;8.172;2023-06-24T07:22:09;21.70;99.90
15815;DHT22;8008;50.024;8.172;2023-06-24T07:24:38;21.70;99.90
15815;DHT22;8008;50.024;8.172;2023-06-24T07:27:06;21.80;99.90
15815;DHT22;8008;50.024;8.172;2023-06-24T07:29:34;21.90;99.90
15815;DHT22;8008;50.024;8.172;2023-06-24T07:32:03;22.00;99.90
15815;DHT22;8008;50.024;8.172;2023-06-24T07:34:33;22.10;99.90
15815;DHT22;8008;50.024;8.172;2023-06-24T07:37:01;22.10;99.90
15815;DHT22;8008;50.024;8.172;2023-06-24T07:39:48;22.20;99.90
15815;DHT22;8008;50.024;8.172;2023-06-24T07:42:16;22.20;99.90
15815;DHT22;8008;50.024;8.172;2023-06-24T07:44:46;22.30;99.90
15815;DHT22;8008;50.024;8.172;2023-06-24T07:47:14;22.30;99.90
15815;DHT22;8008;50.024;8.172;2023-06-24T07:49:43;22.40;99.90
15815;DHT22;8008;50.024;8.172;2023-06-24T07:52:12;22.40;99.90
15815;DHT22;8008;50.024;8.172;2023-06-24T07:54:41;22.50;99.90
15815;DHT22;8008;50.024;8.172;2023-06-24T07:57:09;22.50;99.90
15815;DHT22;8008;50.024;8.172;2023-06-24T07:59:37;22.60;99.90
15815;DHT22;8008;50.024;8.172;2023-06-24T08:02:05;22.70;99.70
15815;DHT22;8008;50.024;8.172;2023-06-24T08:04:33;22.70;99.50
15815;DHT22;8008;50.024;8.172;2023-06-24T08:07:04;22.80;99.40
15815;DHT22;8008;50.024;8.172;2023-06-24T08:09:32;22.70;98.60
15815;DHT22;8008;50.024;8.172;2023-06-24T08:12:00;22.70;98.50
15815;DHT22;8008;50.024;8.172;2023-06-24T08:14:28;22.90;98.70
15815;DHT22;8008;50.024;8.172;2023-06-24T08:16:56;23.00;98.20
15815;DHT22;8008;50.024;8.172;2023-06-24T08:19:24;23.00;98.20
15815;DHT22;8008;50.024;8.172;2023-06-24T08:21:53;23.10;97.70
15815;DHT22;8008;50.024;8.172;2023-06-24T08:24:22;23.20;98.00
15815;DHT22;8008;50.024;8.172;2023-06-24T08:26:50;23.20;97.40
15815;DHT22;8008;50.024;8.172;2023-06-24T08:29:19;23.30;97.30
15815;DHT22;8008;50.024;8.172;2023-06-24T08:31:47;23.30;97.50
15815;DHT22;8008;50.024;8.172;2023-06-24T08:34:15;23.40;97.10
15815;DHT22;8008;50.024;8.172;2023-06-24T08:36:43;23.50;97.10
15815;DHT22;8008;50.024;8.172;2023-06-24T08:39:11;23.60;97.00
15815;DHT22;8008;50.024;8.172;2023-06-24T08:41:41;23.70;97.00
15815;DHT22;8008;50.024;8.172;2023-06-24T08:44:10;23.70;96.80
15815;DHT22;8008;50.024;8.172;2023-06-24T08:46:38;23.80;96.60
15815;DHT22;8008;50.024;8.172;2023-06-24T08:49:13;23.80;96.40
15815;DHT22;8008;50.024;8.172;2023-06-24T08:51:46;23.80;96.20
15815;DHT22;8008;50.024;8.172;2023-06-24T08:54:16;23.80;96.30
15815;DHT22;8008;50.024;8.172;2023-06-24T08:56:49;24.00;96.30
15815;DHT22;8008;50.024;8.172;2023-06-24T08:59:17;23.90;96.30
15815;DHT22;8008;50.024;8.172;2023-06-24T09:01:47;24.00;95.80
15815;DHT22;8008;50.024;8.172;2023-06-24T09:04:16;24.00;95.60
15815;DHT22;8008;50.024;8.172;2023-06-24T09:06:44;24.10;95.80
15815;DHT22;8008;50.024;8.172;2023-06-24T09:09:19;24.20;95.90
15815;DHT22;8008;50.024;8.172;2023-06-24T09:11:56;24.30;95.50
15815;DHT22;8008;50.024;8.172;2023-06-24T09:14:25;24.30;95.40
15815;DHT22;8008;50.024;8.172;2023-06-24T09:16:54;24.30;95.00
15815;DHT22;8008;50.024;8.172;2023-06-24T09:19:22;24.30;94.40
15815;DHT22;8008;50.024;8.172;2023-06-24T09:21:50;24.40;94.70
15815;DHT22;8008;50.024;8.172;2023-06-24T09:24:19;24.50;93.20
15815;DHT22;8008;50.024;8.172;2023-06-24T09:26:47;24.50;93.10
15815;DHT22;8008;50.024;8.172;2023-06-24T09:29:16;24.60;93.40
15815;DHT22;8008;50.024;8.172;2023-06-24T09:31:48;24.70;92.90
15815;DHT22;8008;50.024;8.172;2023-06-24T09:34:18;24.70;92.70
15815;DHT22;8008;50.024;8.172;2023-06-24T09:36:51;24.80;91.60
15815;DHT22;8008;50.024;8.172;2023-06-24T09:39:19;24.80;87.80
15815;DHT22;8008;50.024;8.172;2023-06-24T09:41:56;24.80;87.60
15815;DHT22;8008;50.024;8.172;2023-06-24T09:44:27;24.90;89.30
15815;DHT22;8008;50.024;8.172;2023-06-24T09:46:55;24.90;88.40
15815;DHT22;8008;50.024;8.172;2023-06-24T09:49:23;25.10;88.90
15815;DHT22;8008;50.024;8.172;2023-06-24T09:51:55;25.20;87.50
15815;DHT22;8008;50.024;8.172;2023-06-24T09:54:25;25.20;87.10
15815;DHT22;8008;50.024;8.172;2023-06-24T09:57:01;25.20;84.60
15815;DHT22;8008;50.024;8.172;2023-06-24T09:59:31;25.20;82.20
15815;DHT22;8008;50.024;8.172;2023-06-24T10:02:02;25.10;83.40
15815;DHT22;8008;50.024;8.172;2023-06-24T10:04:31;25.10;83.20
15815;DHT22;8008;50.024;8.172;2023-06-24T10:07:00;25.30;84.30
15815;DHT22;8008;50.024;8.172;2023-06-24T10:09:29;25.40;83.10
15815;DHT22;8008;50.024;8.172;2023-06-24T10:11:58;25.40;83.70
15815;DHT22;8008;50.024;8.172;2023-06-24T10:14:27;25.40;85.10
15815;DHT22;8008;50.024;8.172;2023-06-24T10:17:02;25.50;83.80
15815;DHT22;8008;50.024;8.172;2023-06-24T10:19:37;25.60;85.30
15815;DHT22;8008;50.024;8.172;2023-06-24T10:22:08;25.70;82.90
15815;DHT22;8008;50.024;8.172;2023-06-24T10:24:38;26.00;82.20
15815;DHT22;8008;50.024;8.172;2023-06-24T10:27:09;26.20;82.40
15815;DHT22;8008;50.024;8.172;2023-06-24T10:29:45;26.40;82.30
15815;DHT22;8008;50.024;8.172;2023-06-24T10:32:14;26.70;78.30
15815;DHT22;8008;50.024;8.172;2023-06-24T10:34:43;26.80;76.40
15815;DHT22;8008;50.024;8.172;2023-06-24T10:37:18;27.00;74.40
15815;DHT22;8008;50.024;8.172;2023-06-24T10:39:48;27.10;73.00
15815;DHT22;8008;50.024;8.172;2023-06-24T10:42:32;27.20;72.40
15815;DHT22;8008;50.024;8.172;2023-06-24T10:45:12;27.30;72.30
15815;DHT22;8008;50.024;8.172;2023-06-24T10:47:43;27.40;71.30
15815;DHT22;8008;50.024;8.172;2023-06-24T10:50:13;27.40;70.50
15815;DHT22;8008;50.024;8.172;2023-06-24T10:52:43;27.40;70.70
15815;DHT22;8008;50.024;8.172;2023-06-24T10:55:13;27.50;71.80
15815;DHT22;8008;50.024;8.172;2023-06-24T10:57:42;27.60;72.70
15815;DHT22;8008;50.024;8.172;2023-06-24T11:00:12;27.70;72.30
15815;DHT22;8008;50.024;8.172;2023-06-24T11:02:42;27.80;71.70
15815;DHT22;8008;50.024;8.172;2023-06-24T11:05:09;27.80;70.80
15815;DHT22;8008;50.024;8.172;2023-06-24T11:07:38;27.80;72.10
15815;DHT22;8008;50.024;8.172;2023-06-24T11:10:11;27.90;72.30
15815;DHT22;8008;50.024;8.172;2023-06-24T11:12:40;28.00;71.80
15815;DHT22;8008;50.024;8.172;2023-06-24T11:15:10;27.90;71.00
15815;DHT22;8008;50.024;8.172;2023-06-24T11:17:39;27.80;69.60
15815;DHT22;8008;50.024;8.172;2023-06-24T11:20:10;27.90;71.30
15815;DHT22;8008;50.024;8.172;2023-06-24T11:22:40;28.10;70.30
15815;DHT22;8008;50.024;8.172;2023-06-24T11:25:14;28.20;70.20
15815;DHT22;8008;50.024;8.172;2023-06-24T11:27:42;28.20;71.10
15815;DHT22;8008;50.024;8.172;2023-06-24T11:30:11;28.40;69.00
15815;DHT22;8008;50.024;8.172;2023-06-24T11:32:41;28.50;68.40
15815;DHT22;8008;50.024;8.172;2023-06-24T11:35:11;28.60;67.80
15815;DHT22;8008;50.024;8.172;2023-06-24T11:37:42;28.60;68.00
15815;DHT22;8008;50.024;8.172;2023-06-24T11:40:12;28.40;67.90
15815;DHT22;8008;50.024;8.172;2023-06-24T11:42:43;28.20;68.50
15815;DHT22;8008;50.024;8.172;2023-06-24T11:45:13;28.00;68.70
15815;DHT22;8008;50.024;8.172;2023-06-24T11:47:43;28.10;69.10
15815;DHT22;8008;50.024;8.172;2023-06-24T11:50:12;28.20;68.80
15815;DHT22;8008;50.024;8.172;2023-06-24T11:52:41;28.30;68.60
15815;DHT22;8008;50.024;8.172;2023-06-24T11:55:17;28.50;66.80
15815;DHT22;8008;50.024;8.172;2023-06-24T11:57:50;28.70;66.40
15815;DHT22;8008;50.024;8.172;2023-06-24T12:00:22;28.90;66.70
15815;DHT22;8008;50.024;8.172;2023-06-24T12:02:55;28.80;66.80
15815;DHT22;8008;50.024;8.172;2023-06-24T12:05:27;28.80;64.80
15815;DHT22;8008;50.024;8.172;2023-06-24T12:07:57;29.00;64.60
15815;DHT22;8008;50.024;8.172;2023-06-24T12:10:25;29.20;64.20
15815;DHT22;8008;50.024;8.172;2023-06-24T12:12:53;29.60;64.00
15815;DHT22;8008;50.024;8.172;2023-06-24T12:15:22;29.90;64.20
15815;DHT22;8008;50.024;8.172;2023-06-24T12:17:50;30.10;64.40
15815;DHT22;8008;50.024;8.172;2023-06-24T12:20:18;30.10;62.20
15815;DHT22;8008;50.024;8.172;2023-06-24T12:22:48;29.90;61.60
15815;DHT22;8008;50.024;8.172;2023-06-24T12:25:17;29.90;61.00
15815;DHT22;8008;50.024;8.172;2023-06-24T12:27:45;29.90;60.20
15815;DHT22;8008;50.024;8.172;2023-06-24T12:30:13;29.90;60.40
15815;DHT22;8008;50.024;8.172;2023-06-24T12:32:43;30.10;61.50
15815;DHT22;8008;50.024;8.172;2023-06-24T12:35:12;30.30;61.90
15815;DHT22;8008;50.024;8.172;2023-06-24T12:37:40;30.50;61.50
15815;DHT22;8008;50.024;8.172;2023-06-24T12:40:10;30.70;59.60
15815;DHT22;8008;50.024;8.172;2023-06-24T12:42:38;30.70;59.30
15815;DHT22;8008;50.024;8.172;2023-06-24T12:45:07;31.00;59.90
15815;DHT22;8008;50.024;8.172;2023-06-24T12:47:35;31.30;61.00
15815;DHT22;8008;50.024;8.172;2023-06-24T12:50:04;31.70;59.70
15815;DHT22;8008;50.024;8.172;2023-06-24T12:52:35;31.70;59.30
15815;DHT22;8008;50.024;8.172;2023-06-24T12:55:05;31.50;58.30
15815;DHT22;8008;50.024;8.172;2023-06-24T12:57:36;31.30;59.50
15815;DHT22;8008;50.024;8.172;2023-06-24T13:00:05;31.20;59.90
15815;DHT22;8008;50.024;8.172;2023-06-24T13:02:34;30.90;58.90
15815;DHT22;8008;50.024;8.172;2023-06-24T13:05:02;30.70;59.20
15815;DHT22;8008;50.024;8.172;2023-06-24T13:07:30;30.60;58.30
15815;DHT22;8008;50.024;8.172;2023-06-24T13:09:59;30.60;59.20
15815;DHT22;8008;50.024;8.172;2023-06-24T13:12:28;30.60;59.80
15815;DHT22;8008;50.024;8.172;2023-06-24T13:14:57;30.70;60.20
15815;DHT22;8008;50.024;8.172;2023-06-24T13:17:25;30.70;59.00
15815;DHT22;8008;50.024;8.172;2023-06-24T13:19:54;31.00;58.90
15815;DHT22;8008;50.024;8.172;2023-06-24T13:22:22;31.80;58.30
15815;DHT22;8008;50.024;8.172;2023-06-24T13:24:50;32.80;57.20
15815;DHT22;8008;50.024;8.172;2023-06-24T13:27:18;33.60;56.00
15815;DHT22;8008;50.024;8.172;2023-06-24T13:29:46;34.30;56.10
15815;DHT22;8008;50.024;8.172;2023-06-24T13:32:16;35.00;55.40
15815;DHT22;8008;50.024;8.172;2023-06-24T13:34:44;35.60;54.70
15815;DHT22;8008;50.024;8.172;2023-06-24T13:37:12;36.30;53.90
15815;DHT22;8008;50.024;8.172;2023-06-24T13:39:42;36.90;52.70
15815;DHT22;8008;50.024;8.172;2023-06-24T13:42:10;37.20;51.40
15815;DHT22;8008;50.024;8.172;2023-06-24T13:44:39;37.50;50.60
15815;DHT22;8008;50.024;8.172;2023-06-24T13:47:07;38.00;50.90
15815;DHT22;8008;50.024;8.172;2023-06-24T13:49:36;38.20;49.80
15815;DHT22;8008;50.024;8.172;2023-06-24T13:52:05;38.20;50.20
15815;DHT22;8008;50.024;8.172;2023-06-24T13:54:34;38.50;47.90
15815;DHT22;8008;50.024;8.172;2023-06-24T13:57:02;38.90;48.20
15815;DHT22;8008;50.024;8.172;2023-06-24T13:59:30;39.20;46.90
15815;DHT22;8008;50.024;8.172;2023-06-24T14:01:58;39.30;46.50
15815;DHT22;8008;50.024;8.172;2023-06-24T14:04:26;39.50;46.60
15815;DHT22;8008;50.024;8.172;2023-06-24T14:06:55;39.20;46.60
15815;DHT22;8008;50.024;8.172;2023-06-24T14:09:23;38.90;46.40
15815;DHT22;8008;50.024;8.172;2023-06-24T14:11:51;39.20;46.40
15815;DHT22;8008;50.024;8.172;2023-06-24T14:14:19;39.80;46.10
15815;DHT22;8008;50.024;8.172;2023-06-24T14:16:47;40.50;46.30
15815;DHT22;8008;50.024;8.172;2023-06-24T14:19:15;40.90;45.50
15815;DHT22;8008;50.024;8.172;2023-06-24T14:21:44;40.90;45.50
15815;DHT22;8008;50.024;8.172;2023-06-24T14:24:14;41.30;45.00
15815;DHT22;8008;50.024;8.172;2023-06-24T14:26:43;41.40;44.70
15815;DHT22;8008;50.024;8.172;2023-06-24T14:29:11;41.70;44.60
15815;DHT22;8008;50.024;8.172;2023-06-24T14:31:39;40.80;43.80
15815;DHT22;8008;50.024;8.172;2023-06-24T14:34:07;39.50;44.80
15815;DHT22;8008;50.024;8.172;2023-06-24T14:36:35;39.30;45.20
15815;DHT22;8008;50.024;8.172;2023-06-24T14:39:03;39.70;44.30
15815;DHT22;8008;50.024;8.172;2023-06-24T14:41:32;40.60;44.10
15815;DHT22;8008;50.024;8.172;2023-06-24T14:44:00;40.70;44.10
15815;DHT22;8008;50.024;8.172;2023-06-24T14:46:28;40.10;44.10
15815;DHT22;8008;50.024;8.172;2023-06-24T14:48:56;39.80;43.50
15815;DHT22;8008;50.024;8.172;2023-06-24T14:51:24;40.00;44.50
15815;DHT22;8008;50.024;8.172;2023-06-24T14:53:54;40.60;44.30
15815;DHT22;8008;50.024;8.172;2023-06-24T14:56:22;41.10;43.50
15815;DHT22;8008;50.024;8.172;2023-06-24T14:58:52;41.30;43.10
15815;DHT22;8008;50.024;8.172;2023-06-24T15:01:19;41.30;42.80
15815;DHT22;8008;50.024;8.172;2023-06-24T15:03:47;41.60;43.00
15815;DHT22;8008;50.024;8.172;2023-06-24T15:06:15;41.90;42.70
15815;DHT22;8008;50.024;8.172;2023-06-24T15:08:43;42.60;42.50
15815;DHT22;8008;50.024;8.172;2023-06-24T15:11:11;43.40;42.10
15815;DHT22;8008;50.024;8.172;2023-06-24T15:13:39;43.60;41.60
15815;DHT22;8008;50.024;8.172;2023-06-24T15:16:08;43.90;41.50
15815;DHT22;8008;50.024;8.172;2023-06-24T15:18:44;43.80;40.60
15815;DHT22;8008;50.024;8.172;2023-06-24T15:21:12;42.80;40.90
15815;DHT22;8008;50.024;8.172;2023-06-24T15:24:00;43.00;41.10
15815;DHT22;8008;50.024;8.172;2023-06-24T15:26:28;43.10;40.90
15815;DHT22;8008;50.024;8.172;2023-06-24T15:28:56;43.70;40.20
15815;DHT22;8008;50.024;8.172;2023-06-24T15:31:26;43.70;39.40
15815;DHT22;8008;50.024;8.172;2023-06-24T15:33:54;43.90;39.90
15815;DHT22;8008;50.024;8.172;2023-06-24T15:36:22;44.10;40.00
15815;DHT22;8008;50.024;8.172;2023-06-24T15:38:53;44.00;39.70
15815;DHT22;8008;50.024;8.172;2023-06-24T15:41:21;43.90;40.40
15815;DHT22;8008;50.024;8.172;2023-06-24T15:43:49;44.10;39.50
15815;DHT22;8008;50.024;8.172;2023-06-24T15:46:17;43.80;39.20
15815;DHT22;8008;50.024;8.172;2023-06-24T15:48:47;43.70;39.40
15815;DHT22;8008;50.024;8.172;2023-06-24T15:51:15;43.20;39.90
15815;DHT22;8008;50.024;8.172;2023-06-24T15:53:42;41.80;40.00
15815;DHT22;8008;50.024;8.172;2023-06-24T15:56:10;39.90;40.60
15815;DHT22;8008;50.024;8.172;2023-06-24T15:58:38;38.60;42.00
15815;DHT22;8008;50.024;8.172;2023-06-24T16:01:06;37.60;42.90
15815;DHT22;8008;50.024;8.172;2023-06-24T16:03:34;36.80;42.90
15815;DHT22;8008;50.024;8.172;2023-06-24T16:06:05;36.20;43.10
15815;DHT22;8008;50.024;8.172;2023-06-24T16:08:33;35.80;44.10
15815;DHT22;8008;50.024;8.172;2023-06-24T16:11:01;35.30;44.90
15815;DHT22;8008;50.024;8.172;2023-06-24T16:13:28;34.90;45.00
15815;DHT22;8008;50.024;8.172;2023-06-24T16:15:58;34.60;44.70
15815;DHT22;8008;50.024;8.172;2023-06-24T16:18:26;34.40;44.40
15815;DHT22;8008;50.024;8.172;2023-06-24T16:20:54;34.30;45.60
15815;DHT22;8008;50.024;8.172;2023-06-24T16:23:23;34.20;45.70
15815;DHT22;8008;50.024;8.172;2023-06-24T16:25:51;34.00;46.00
15815;DHT22;8008;50.024;8.172;2023-06-24T16:28:19;33.80;46.40
15815;DHT22;8008;50.024;8.172;2023-06-24T16:30:47;33.60;46.60
15815;DHT22;8008;50.024;8.172;2023-06-24T16:33:15;33.40;47.20
15815;DHT22;8008;50.024;8.172;2023-06-24T16:35:43;33.30;46.70
15815;DHT22;8008;50.024;8.172;2023-06-24T16:38:10;33.00;47.20
15815;DHT22;8008;50.024;8.172;2023-06-24T16:40:40;32.90;47.40
15815;DHT22;8008;50.024;8.172;2023-06-24T16:43:08;32.60;47.50
15815;DHT22;8008;50.024;8.172;2023-06-24T16:45:36;32.30;47.70
15815;DHT22;8008;50.024;8.172;2023-06-24T16:48:04;32.20;48.20
15815;DHT22;8008;50.024;8.172;2023-06-24T16:50:32;32.10;48.00
15815;DHT22;8008;50.024;8.172;2023-06-24T16:53:02;31.90;48.60
15815;DHT22;8008;50.024;8.172;2023-06-24T16:55:30;31.80;48.20
15815;DHT22;8008;50.024;8.172;2023-06-24T16:57:59;31.70;48.60
15815;DHT22;8008;50.024;8.172;2023-06-24T17:00:27;31.60;48.20
15815;DHT22;8008;50.024;8.172;2023-06-24T17:02:55;31.50;48.50
15815;DHT22;8008;50.024;8.172;2023-06-24T17:05:23;31.40;48.90
15815;DHT22;8008;50.024;8.172;2023-06-24T17:07:51;31.40;49.40
15815;DHT22;8008;50.024;8.172;2023-06-24T17:10:19;31.30;48.90
15815;DHT22;8008;50.024;8.172;2023-06-24T17:12:47;31.20;48.70
15815;DHT22;8008;50.024;8.172;2023-06-24T17:15:16;31.10;49.10
15815;DHT22;8008;50.024;8.172;2023-06-24T17:17:44;31.10;48.70
15815;DHT22;8008;50.024;8.172;2023-06-24T17:20:12;31.10;48.50
15815;DHT22;8008;50.024;8.172;2023-06-24T17:22:40;31.00;48.90
15815;DHT22;8008;50.024;8.172;2023-06-24T17:25:08;31.00;48.90
15815;DHT22;8008;50.024;8.172;2023-06-24T17:27:37;31.40;49.60
15815;DHT22;8008;50.024;8.172;2023-06-24T17:30:06;32.10;49.10
15815;DHT22;8008;50.024;8.172;2023-06-24T17:32:35;32.50;47.50
15815;DHT22;8008;50.024;8.172;2023-06-24T17:35:03;32.30;47.60
15815;DHT22;8008;50.024;8.172;2023-06-24T17:37:32;32.00;49.10
15815;DHT22;8008;50.024;8.172;2023-06-24T17:40:00;31.70;48.70
15815;DHT22;8008;50.024;8.172;2023-06-24T17:42:27;31.40;50.40
15815;DHT22;8008;50.024;8.172;2023-06-24T17:44:55;31.10;49.50
15815;DHT22;8008;50.024;8.172;2023-06-24T17:47:23;30.90;50.60
15815;DHT22;8008;50.024;8.172;2023-06-24T17:49:53;30.60;50.50
15815;DHT22;8008;50.024;8.172;2023-06-24T17:52:20;30.50;50.10
15815;DHT22;8008;50.024;8.172;2023-06-24T17:54:49;30.40;50.80
15815;DHT22;8008;50.024;8.172;2023-06-24T17:57:17;30.20;50.30
15815;DHT22;8008;50.024;8.172;2023-06-24T17:59:45;30.00;49.70
15815;DHT22;8008;50.024;8.172;2023-06-24T18:02:13;29.90;49.70
15815;DHT22;8008;50.024;8.172;2023-06-24T18:04:41;29.90;50.10
15815;DHT22;8008;50.024;8.172;2023-06-24T18:07:10;29.80;50.20
15815;DHT22;8008;50.024;8.172;2023-06-24T18:09:38;29.70;49.90
15815;DHT22;8008;50.024;8.172;2023-06-24T18:12:07;29.60;50.80
15815;DHT22;8008;50.024;8.172;2023-06-24T18:14:35;29.50;51.50
15815;DHT22;8008;50.024;8.172;2023-06-24T18:17:03;29.50;51.90
15815;DHT22;8008;50.024;8.172;2023-06-24T18:19:31;29.50;51.90
15815;DHT22;8008;50.024;8.172;2023-06-24T18:21:59;29.40;51.80
15815;DHT22;8008;50.024;8.172;2023-06-24T18:24:29;29.30;52.10
15815;DHT22;8008;50.024;8.172;2023-06-24T18:26:57;29.20;51.80
15815;DHT22;8008;50.024;8.172;2023-06-24T18:29:25;29.20;52.40
15815;DHT22;8008;50.024;8.172;2023-06-24T18:31:53;29.10;52.30
15815;DHT22;8008;50.024;8.172;2023-06-24T18:34:21;29.00;52.30
15815;DHT22;8008;50.024;8.172;2023-06-24T18:36:49;29.00;53.60
15815;DHT22;8008;50.024;8.172;2023-06-24T18:39:17;28.90;54.00
15815;DHT22;8008;50.024;8.172;2023-06-24T18:41:46;28.80;54.10
15815;DHT22;8008;50.024;8.172;2023-06-24T18:44:14;28.80;54.10
15815;DHT22;8008;50.024;8.172;2023-06-24T18:46:42;28.70;54.90
15815;DHT22;8008;50.024;8.172;2023-06-24T18:49:10;28.70;55.40
15815;DHT22;8008;50.024;8.172;2023-06-24T18:51:38;28.60;55.80
15815;DHT22;8008;50.024;8.172;2023-06-24T18:54:06;28.50;55.40
15815;DHT22;8008;50.024;8.172;2023-06-24T18:56:34;28.40;56.60